sensor_id;sensor_type;location;lat;lon;timestamp;P1;durP1;ratioP1;P2;durP2;ratioP2
22603;SDS011;11469;49.024;8.246;2024-01-06T00:01:59;18.35;;;5.88;;
22603;SDS011;11469;49.024;8.246;2024-01-06T00:04:25;15.98;;;4.60;;
22603;SDS011;11469;49.024;8.246;2024-01-06T00:06:50;10.85;;;4.50;;
22603;SDS011;11469;49.024;8.246;2024-01-06T00:09:15;18.58;;;4.95;;
22603;SDS011;11469;49.024;8.246;2024-01-06T00:11:41;13.95;;;3.88;;
22603;SDS011;11469;49.024;8.246;2024-01-06T00:14:06;10.60;;;3.72;;
22603;SDS011;11469;49.024;8.246;2024-01-06T00:16:31;12.57;;;3.55;;
22603;SDS011;11469;49.024;8.246;2024-01-06T00:18:57;11.85;;;3.70;;
22603;SDS011;11469;49.024;8.246;2024-01-06T00:21:22;16.90;;;4.38;;
22603;SDS011;11469;49.024;8.246;2024-01-06T00:23:47;14.10;;;4.28;;
22603;SDS011;11469;49.024;8.246;2024-01-06T00:26:13;14.95;;;4.32;;
22603;SDS011;11469;49.024;8.246;2024-01-06T00:28:38;13.00;;;4.78;;
22603;SDS011;11469;49.024;8.246;2024-01-06T00:31:04;20.52;;;4.53;;
22603;SDS011;11469;49.024;8.246;2024-01-06T00:33:30;9.50;;;3.10;;
22603;SDS011;11469;49.024;8.246;2024-01-06T00:35:56;10.90;;;3.85;;
22603;SDS011;11469;49.024;8.246;2024-01-06T00:38:21;18.10;;;5.03;;
22603;SDS011;11469;49.024;8.246;2024-01-06T00:40:46;13.65;;;4.97;;
22603;SDS011;11469;49.024;8.246;2024-01-06T00:43:12;12.85;;;4.70;;
22603;SDS011;11469;49.024;8.246;2024-01-06T00:45:37;12.98;;;3.95;;
22603;SDS011;11469;49.024;8.246;2024-01-06T00:48:03;13.43;;;4.30;;
22603;SDS011;11469;49.024;8.246;2024-01-06T00:50:29;13.13;;;4.60;;
22603;SDS011;11469;49.024;8.246;2024-01-06T00:52:57;17.30;;;4.57;;
22603;SDS011;11469;49.024;8.246;2024-01-06T00:55:22;11.30;;;3.72;;
22603;SDS011;11469;49.024;8.246;2024-01-06T00:57:48;19.63;;;4.50;;
22603;SDS011;11469;49.024;8.246;2024-01-06T01:00:14;14.65;;;4.22;;
22603;SDS011;11469;49.024;8.246;2024-01-06T01:02:40;13.45;;;3.97;;
22603;SDS011;11469;49.024;8.246;2024-01-06T01:05:05;8.07;;;3.30;;
22603;SDS011;11469;49.024;8.246;2024-01-06T01:07:34;9.68;;;3.80;;
22603;SDS011;11469;49.024;8.246;2024-01-06T01:10:00;10.68;;;3.65;;
22603;SDS011;11469;49.024;8.246;2024-01-06T01:12:25;12.68;;;4.00;;
22603;SDS011;11469;49.024;8.246;2024-01-06T01:14:51;8.05;;;3.67;;
22603;SDS011;11469;49.024;8.246;2024-01-06T01:17:16;13.38;;;3.38;;
22603;SDS011;11469;49.024;8.246;2024-01-06T01:19:42;10.43;;;3.65;;
22603;SDS011;11469;49.024;8.246;2024-01-06T01:22:07;13.43;;;4.53;;
22603;SDS011;11469;49.024;8.246;2024-01-06T01:24:33;19.63;;;4.80;;
22603;SDS011;11469;49.024;8.246;2024-01-06T01:26:59;14.25;;;4.60;;
22603;SDS011;11469;49.024;8.246;2024-01-06T01:29:24;15.48;;;4.70;;
22603;SDS011;11469;49.024;8.246;2024-01-06T01:31:49;14.55;;;4.97;;
22603;SDS011;11469;49.024;8.246;2024-01-06T01:34:15;13.73;;;4.63;;
22603;SDS011;11469;49.024;8.246;2024-01-06T01:36:40;10.57;;;5.07;;
22603;SDS011;11469;49.024;8.246;2024-01-06T01:39:06;14.68;;;4.85;;
22603;SDS011;11469;49.024;8.246;2024-01-06T01:41:31;11.02;;;4.50;;
22603;SDS011;11469;49.024;8.246;2024-01-06T01:43:56;10.98;;;5.00;;
22603;SDS011;11469;49.024;8.246;2024-01-06T01:46:25;14.27;;;5.60;;
22603;SDS011;11469;49.024;8.246;2024-01-06T01:48:52;12.63;;;4.90;;
22603;SDS011;11469;49.024;8.246;2024-01-06T01:51:21;14.27;;;5.65;;
22603;SDS011;11469;49.024;8.246;2024-01-06T01:53:48;18.63;;;5.15;;
22603;SDS011;11469;49.024;8.246;2024-01-06T01:56:14;16.23;;;5.63;;
22603;SDS011;11469;49.024;8.246;2024-01-06T01:58:41;22.23;;;5.43;;
22603;SDS011;11469;49.024;8.246;2024-01-06T02:01:07;14.80;;;5.22;;
22603;SDS011;11469;49.024;8.246;2024-01-06T02:03:33;8.65;;;4.72;;
22603;SDS011;11469;49.024;8.246;2024-01-06T02:05:58;15.05;;;4.78;;
22603;SDS011;11469;49.024;8.246;2024-01-06T02:08:24;15.55;;;5.10;;
22603;SDS011;11469;49.024;8.246;2024-01-06T02:10:49;12.98;;;4.45;;
22603;SDS011;11469;49.024;8.246;2024-01-06T02:13:15;11.68;;;4.90;;
22603;SDS011;11469;49.024;8.246;2024-01-06T02:15:40;12.98;;;4.75;;
22603;SDS011;11469;49.024;8.246;2024-01-06T02:18:06;10.30;;;4.30;;
22603;SDS011;11469;49.024;8.246;2024-01-06T02:20:31;12.32;;;4.00;;
22603;SDS011;11469;49.024;8.246;2024-01-06T02:22:57;9.15;;;3.90;;
22603;SDS011;11469;49.024;8.246;2024-01-06T02:25:24;13.07;;;4.88;;
22603;SDS011;11469;49.024;8.246;2024-01-06T02:27:50;17.67;;;4.60;;
22603;SDS011;11469;49.024;8.246;2024-01-06T02:30:15;8.93;;;3.63;;
22603;SDS011;11469;49.024;8.246;2024-01-06T02:32:40;13.55;;;4.10;;
22603;SDS011;11469;49.024;8.246;2024-01-06T02:35:06;8.98;;;3.90;;
22603;SDS011;11469;49.024;8.246;2024-01-06T02:37:31;12.90;;;3.55;;
22603;SDS011;11469;49.024;8.246;2024-01-06T02:39:57;13.80;;;3.63;;
22603;SDS011;11469;49.024;8.246;2024-01-06T02:42:22;15.07;;;4.45;;
22603;SDS011;11469;49.024;8.246;2024-01-06T02:44:49;11.38;;;3.25;;
22603;SDS011;11469;49.024;8.246;2024-01-06T02:47:14;9.77;;;3.67;;
22603;SDS011;11469;49.024;8.246;2024-01-06T02:49:40;13.25;;;3.50;;
22603;SDS011;11469;49.024;8.246;2024-01-06T02:52:05;14.02;;;3.95;;
22603;SDS011;11469;49.024;8.246;2024-01-06T02:54:31;12.07;;;3.72;;
22603;SDS011;11469;49.024;8.246;2024-01-06T02:56:56;11.38;;;3.85;;
22603;SDS011;11469;49.024;8.246;2024-01-06T02:59:21;10.43;;;4.07;;
22603;SDS011;11469;49.024;8.246;2024-01-06T03:01:47;13.23;;;4.10;;
22603;SDS011;11469;49.024;8.246;2024-01-06T03:04:12;13.15;;;3.80;;
22603;SDS011;11469;49.024;8.246;2024-01-06T03:06:37;14.82;;;4.30;;
22603;SDS011;11469;49.024;8.246;2024-01-06T03:09:03;9.38;;;3.33;;
22603;SDS011;11469;49.024;8.246;2024-01-06T03:11:28;8.40;;;3.00;;
22603;SDS011;11469;49.024;8.246;2024-01-06T03:13:53;10.23;;;3.88;;
22603;SDS011;11469;49.024;8.246;2024-01-06T03:16:19;11.27;;;3.90;;
22603;SDS011;11469;49.024;8.246;2024-01-06T03:18:44;15.68;;;3.50;;
22603;SDS011;11469;49.024;8.246;2024-01-06T03:21:18;10.15;;;3.08;;
22603;SDS011;11469;49.024;8.246;2024-01-06T03:23:45;10.10;;;2.95;;
22603;SDS011;11469;49.024;8.246;2024-01-06T03:26:11;6.72;;;3.35;;
22603;SDS011;11469;49.024;8.246;2024-01-06T03:28:36;14.90;;;4.20;;
22603;SDS011;11469;49.024;8.246;2024-01-06T03:31:02;16.23;;;3.72;;
22603;SDS011;11469;49.024;8.246;2024-01-06T03:33:27;11.40;;;3.38;;
22603;SDS011;11469;49.024;8.246;2024-01-06T03:35:53;16.85;;;4.50;;
22603;SDS011;11469;49.024;8.246;2024-01-06T03:38:18;18.48;;;3.80;;
22603;SDS011;11469;49.024;8.246;2024-01-06T03:40:43;14.75;;;3.70;;
22603;SDS011;11469;49.024;8.246;2024-01-06T03:43:09;13.35;;;3.85;;
22603;SDS011;11469;49.024;8.246;2024-01-06T03:45:34;9.88;;;3.67;;
22603;SDS011;11469;49.024;8.246;2024-01-06T03:48:00;10.48;;;3.17;;
22603;SDS011;11469;49.024;8.246;2024-01-06T03:50:25;11.85;;;3.53;;
22603;SDS011;11469;49.024;8.246;2024-01-06T03:52:50;19.25;;;4.13;;
22603;SDS011;11469;49.024;8.246;2024-01-06T03:55:16;17.73;;;3.65;;
22603;SDS011;11469;49.024;8.246;2024-01-06T03:57:41;9.73;;;3.40;;
22603;SDS011;11469;49.024;8.246;2024-01-06T04:00:07;10.07;;;3.50;;
22603;SDS011;11469;49.024;8.246;2024-01-06T04:02:33;14.50;;;4.00;;
22603;SDS011;11469;49.024;8.246;2024-01-06T04:04:59;17.10;;;4.78;;
22603;SDS011;11469;49.024;8.246;2024-01-06T04:07:24;15.77;;;4.05;;
22603;SDS011;11469;49.024;8.246;2024-01-06T04:09:49;15.82;;;3.95;;
22603;SDS011;11469;49.024;8.246;2024-01-06T04:12:15;18.38;;;3.95;;
22603;SDS011;11469;49.024;8.246;2024-01-06T04:14:40;11.13;;;4.03;;
22603;SDS011;11469;49.024;8.246;2024-01-06T04:17:06;16.13;;;4.85;;
22603;SDS011;11469;49.024;8.246;2024-01-06T04:19:31;11.02;;;3.83;;
22603;SDS011;11469;49.024;8.246;2024-01-06T04:21:57;11.77;;;3.90;;
22603;SDS011;11469;49.024;8.246;2024-01-06T04:24:22;11.07;;;4.00;;
22603;SDS011;11469;49.024;8.246;2024-01-06T04:26:48;15.85;;;4.47;;
22603;SDS011;11469;49.024;8.246;2024-01-06T04:29:14;17.60;;;4.38;;
22603;SDS011;11469;49.024;8.246;2024-01-06T04:31:43;15.77;;;3.83;;
22603;SDS011;11469;49.024;8.246;2024-01-06T04:34:08;9.98;;;4.22;;
22603;SDS011;11469;49.024;8.246;2024-01-06T04:36:33;9.25;;;3.40;;
22603;SDS011;11469;49.024;8.246;2024-01-06T04:38:59;13.07;;;4.47;;
22603;SDS011;11469;49.024;8.246;2024-01-06T04:41:24;11.13;;;3.88;;
22603;SDS011;11469;49.024;8.246;2024-01-06T04:43:50;11.75;;;3.55;;
22603;SDS011;11469;49.024;8.246;2024-01-06T04:46:15;11.93;;;3.80;;
22603;SDS011;11469;49.024;8.246;2024-01-06T04:48:40;9.88;;;3.20;;
22603;SDS011;11469;49.024;8.246;2024-01-06T04:51:06;9.25;;;3.50;;
22603;SDS011;11469;49.024;8.246;2024-01-06T04:53:35;13.82;;;3.63;;
22603;SDS011;11469;49.024;8.246;2024-01-06T04:56:03;11.98;;;3.67;;
22603;SDS011;11469;49.024;8.246;2024-01-06T04:58:29;13.07;;;4.00;;
22603;SDS011;11469;49.024;8.246;2024-01-06T05:00:54;18.27;;;4.35;;
22603;SDS011;11469;49.024;8.246;2024-01-06T05:03:19;15.13;;;3.72;;
22603;SDS011;11469;49.024;8.246;2024-01-06T05:05:45;12.82;;;4.22;;
22603;SDS011;11469;49.024;8.246;2024-01-06T05:08:10;17.45;;;4.57;;
22603;SDS011;11469;49.024;8.246;2024-01-06T05:10:36;16.27;;;4.18;;
22603;SDS011;11469;49.024;8.246;2024-01-06T05:13:01;11.45;;;4.88;;
22603;SDS011;11469;49.024;8.246;2024-01-06T05:15:26;7.32;;;3.53;;
22603;SDS011;11469;49.024;8.246;2024-01-06T05:17:52;12.18;;;3.83;;
22603;SDS011;11469;49.024;8.246;2024-01-06T05:20:17;14.55;;;3.83;;
22603;SDS011;11469;49.024;8.246;2024-01-06T05:22:43;10.27;;;3.42;;
22603;SDS011;11469;49.024;8.246;2024-01-06T05:25:08;11.40;;;3.65;;
22603;SDS011;11469;49.024;8.246;2024-01-06T05:27:34;15.75;;;3.83;;
22603;SDS011;11469;49.024;8.246;2024-01-06T05:29:59;14.57;;;4.45;;
22603;SDS011;11469;49.024;8.246;2024-01-06T05:32:25;13.30;;;3.90;;
22603;SDS011;11469;49.024;8.246;2024-01-06T05:34:50;10.23;;;3.05;;
22603;SDS011;11469;49.024;8.246;2024-01-06T05:37:16;13.93;;;4.38;;
22603;SDS011;11469;49.024;8.246;2024-01-06T05:39:41;8.07;;;3.33;;
22603;SDS011;11469;49.024;8.246;2024-01-06T05:42:07;16.35;;;3.75;;
22603;SDS011;11469;49.024;8.246;2024-01-06T05:44:37;15.32;;;4.13;;
22603;SDS011;11469;49.024;8.246;2024-01-06T05:47:03;19.42;;;4.38;;
22603;SDS011;11469;49.024;8.246;2024-01-06T05:49:28;12.13;;;3.65;;
22603;SDS011;11469;49.024;8.246;2024-01-06T05:51:54;11.50;;;3.97;;
22603;SDS011;11469;49.024;8.246;2024-01-06T05:54:19;13.18;;;3.80;;
22603;SDS011;11469;49.024;8.246;2024-01-06T05:56:44;8.10;;;3.30;;
22603;SDS011;11469;49.024;8.246;2024-01-06T05:59:10;10.18;;;3.53;;
22603;SDS011;11469;49.024;8.246;2024-01-06T06:01:35;15.82;;;3.45;;
22603;SDS011;11469;49.024;8.246;2024-01-06T06:04:01;9.93;;;3.47;;
22603;SDS011;11469;49.024;8.246;2024-01-06T06:06:26;12.18;;;3.95;;
22603;SDS011;11469;49.024;8.246;2024-01-06T06:08:52;14.23;;;4.45;;
22603;SDS011;11469;49.024;8.246;2024-01-06T06:11:17;12.13;;;3.38;;
22603;SDS011;11469;49.024;8.246;2024-01-06T06:13:43;11.70;;;3.40;;
22603;SDS011;11469;49.024;8.246;2024-01-06T06:16:09;12.95;;;3.35;;
22603;SDS011;11469;49.024;8.246;2024-01-06T06:18:37;11.25;;;3.97;;
22603;SDS011;11469;49.024;8.246;2024-01-06T06:21:03;13.18;;;4.00;;
22603;SDS011;11469;49.024;8.246;2024-01-06T06:23:29;19.45;;;4.63;;
22603;SDS011;11469;49.024;8.246;2024-01-06T06:25:55;9.13;;;3.58;;
22603;SDS011;11469;49.024;8.246;2024-01-06T06:28:21;13.23;;;3.63;;
22603;SDS011;11469;49.024;8.246;2024-01-06T06:30:46;9.27;;;4.35;;
22603;SDS011;11469;49.024;8.246;2024-01-06T06:33:12;14.32;;;4.20;;
22603;SDS011;11469;49.024;8.246;2024-01-06T06:35:37;9.35;;;4.28;;
22603;SDS011;11469;49.024;8.246;2024-01-06T06:38:03;9.25;;;4.15;;
22603;SDS011;11469;49.024;8.246;2024-01-06T06:40:28;14.73;;;4.20;;
22603;SDS011;11469;49.024;8.246;2024-01-06T06:42:54;11.18;;;4.35;;
22603;SDS011;11469;49.024;8.246;2024-01-06T06:45:19;16.38;;;4.15;;
22603;SDS011;11469;49.024;8.246;2024-01-06T06:47:47;13.32;;;4.97;;
22603;SDS011;11469;49.024;8.246;2024-01-06T06:50:14;15.30;;;6.18;;
22603;SDS011;11469;49.024;8.246;2024-01-06T06:52:40;14.50;;;4.85;;
22603;SDS011;11469;49.024;8.246;2024-01-06T06:55:07;14.05;;;4.82;;
22603;SDS011;11469;49.024;8.246;2024-01-06T06:57:32;11.85;;;4.85;;
22603;SDS011;11469;49.024;8.246;2024-01-06T06:59:58;15.90;;;5.38;;
22603;SDS011;11469;49.024;8.246;2024-01-06T07:02:23;11.70;;;4.38;;
22603;SDS011;11469;49.024;8.246;2024-01-06T07:04:48;11.82;;;4.70;;
22603;SDS011;11469;49.024;8.246;2024-01-06T07:07:14;16.15;;;4.97;;
22603;SDS011;11469;49.024;8.246;2024-01-06T07:09:40;11.95;;;4.47;;
22603;SDS011;11469;49.024;8.246;2024-01-06T07:12:05;16.50;;;5.15;;
22603;SDS011;11469;49.024;8.246;2024-01-06T07:14:31;12.65;;;4.78;;
22603;SDS011;11469;49.024;8.246;2024-01-06T07:16:56;13.75;;;5.25;;
22603;SDS011;11469;49.024;8.246;2024-01-06T07:19:22;17.15;;;4.93;;
22603;SDS011;11469;49.024;8.246;2024-01-06T07:21:48;14.88;;;6.18;;
22603;SDS011;11469;49.024;8.246;2024-01-06T07:24:13;10.77;;;4.57;;
22603;SDS011;11469;49.024;8.246;2024-01-06T07:26:39;20.17;;;6.18;;
22603;SDS011;11469;49.024;8.246;2024-01-06T07:29:04;15.68;;;5.30;;
22603;SDS011;11469;49.024;8.246;2024-01-06T07:31:30;16.45;;;5.25;;
22603;SDS011;11469;49.024;8.246;2024-01-06T07:33:55;14.18;;;4.55;;
22603;SDS011;11469;49.024;8.246;2024-01-06T07:36:20;9.75;;;4.22;;
22603;SDS011;11469;49.024;8.246;2024-01-06T07:38:47;9.45;;;4.47;;
22603;SDS011;11469;49.024;8.246;2024-01-06T07:41:12;15.50;;;5.32;;
22603;SDS011;11469;49.024;8.246;2024-01-06T07:43:38;23.98;;;5.20;;
22603;SDS011;11469;49.024;8.246;2024-01-06T07:46:03;14.93;;;5.35;;
22603;SDS011;11469;49.024;8.246;2024-01-06T07:48:29;14.85;;;5.15;;
22603;SDS011;11469;49.024;8.246;2024-01-06T07:50:54;12.82;;;4.50;;
22603;SDS011;11469;49.024;8.246;2024-01-06T07:53:19;17.33;;;5.45;;
22603;SDS011;11469;49.024;8.246;2024-01-06T07:55:45;12.77;;;5.65;;
22603;SDS011;11469;49.024;8.246;2024-01-06T07:58:10;11.07;;;4.72;;
22603;SDS011;11469;49.024;8.246;2024-01-06T08:00:37;15.27;;;5.47;;
22603;SDS011;11469;49.024;8.246;2024-01-06T08:03:02;15.25;;;4.68;;
22603;SDS011;11469;49.024;8.246;2024-01-06T08:05:31;17.63;;;5.10;;
22603;SDS011;11469;49.024;8.246;2024-01-06T08:07:56;14.38;;;5.30;;
22603;SDS011;11469;49.024;8.246;2024-01-06T08:10:21;18.17;;;5.65;;
22603;SDS011;11469;49.024;8.246;2024-01-06T08:12:48;16.35;;;5.00;;
22603;SDS011;11469;49.024;8.246;2024-01-06T08:15:13;15.45;;;5.28;;
22603;SDS011;11469;49.024;8.246;2024-01-06T08:17:39;11.82;;;5.28;;
22603;SDS011;11469;49.024;8.246;2024-01-06T08:20:06;12.43;;;5.93;;
22603;SDS011;11469;49.024;8.246;2024-01-06T08:22:33;15.20;;;5.80;;
22603;SDS011;11469;49.024;8.246;2024-01-06T08:24:59;18.25;;;5.32;;
22603;SDS011;11469;49.024;8.246;2024-01-06T08:27:24;16.45;;;6.05;;
22603;SDS011;11469;49.024;8.246;2024-01-06T08:29:50;12.95;;;5.90;;
22603;SDS011;11469;49.024;8.246;2024-01-06T08:32:15;14.40;;;5.82;;
22603;SDS011;11469;49.024;8.246;2024-01-06T08:34:41;13.00;;;6.25;;
22603;SDS011;11469;49.024;8.246;2024-01-06T08:37:07;18.35;;;6.85;;
22603;SDS011;11469;49.024;8.246;2024-01-06T08:39:32;15.23;;;6.32;;
22603;SDS011;11469;49.024;8.246;2024-01-06T08:41:58;15.25;;;7.35;;
22603;SDS011;11469;49.024;8.246;2024-01-06T08:44:23;19.08;;;6.82;;
22603;SDS011;11469;49.024;8.246;2024-01-06T08:46:49;22.05;;;8.50;;
22603;SDS011;11469;49.024;8.246;2024-01-06T08:49:15;17.35;;;8.30;;
22603;SDS011;11469;49.024;8.246;2024-01-06T08:51:41;16.70;;;7.93;;
22603;SDS011;11469;49.024;8.246;2024-01-06T08:54:06;19.55;;;7.35;;
22603;SDS011;11469;49.024;8.246;2024-01-06T08:56:34;14.95;;;7.60;;
22603;SDS011;11469;49.024;8.246;2024-01-06T08:59:00;23.95;;;9.27;;
22603;SDS011;11469;49.024;8.246;2024-01-06T09:01:26;24.58;;;8.75;;
22603;SDS011;11469;49.024;8.246;2024-01-06T09:03:51;21.33;;;8.15;;
22603;SDS011;11469;49.024;8.246;2024-01-06T09:06:17;21.08;;;7.97;;
22603;SDS011;11469;49.024;8.246;2024-01-06T09:08:42;20.60;;;9.77;;
22603;SDS011;11469;49.024;8.246;2024-01-06T09:11:07;18.15;;;9.15;;
22603;SDS011;11469;49.024;8.246;2024-01-06T09:13:33;17.75;;;9.10;;
22603;SDS011;11469;49.024;8.246;2024-01-06T09:15:58;21.80;;;9.75;;
22603;SDS011;11469;49.024;8.246;2024-01-06T09:18:25;19.20;;;9.13;;
22603;SDS011;11469;49.024;8.246;2024-01-06T09:20:51;15.90;;;8.70;;
22603;SDS011;11469;49.024;8.246;2024-01-06T09:23:17;16.83;;;8.60;;
22603;SDS011;11469;49.024;8.246;2024-01-06T09:25:42;18.10;;;8.82;;
22603;SDS011;11469;49.024;8.246;2024-01-06T09:28:08;23.95;;;9.98;;
22603;SDS011;11469;49.024;8.246;2024-01-06T09:30:33;19.65;;;9.30;;
22603;SDS011;11469;49.024;8.246;2024-01-06T09:32:59;18.75;;;8.57;;
22603;SDS011;11469;49.024;8.246;2024-01-06T09:35:24;21.15;;;8.68;;
22603;SDS011;11469;49.024;8.246;2024-01-06T09:37:49;18.05;;;8.20;;
22603;SDS011;11469;49.024;8.246;2024-01-06T09:40:17;20.05;;;8.88;;
22603;SDS011;11469;49.024;8.246;2024-01-06T09:42:47;17.02;;;8.75;;
22603;SDS011;11469;49.024;8.246;2024-01-06T09:45:12;20.83;;;9.02;;
22603;SDS011;11469;49.024;8.246;2024-01-06T09:47:38;17.38;;;9.13;;
22603;SDS011;11469;49.024;8.246;2024-01-06T09:50:06;22.70;;;10.43;;
22603;SDS011;11469;49.024;8.246;2024-01-06T09:52:37;20.17;;;9.27;;
22603;SDS011;11469;49.024;8.246;2024-01-06T09:55:06;19.50;;;9.95;;
22603;SDS011;11469;49.024;8.246;2024-01-06T09:57:36;17.88;;;8.95;;
22603;SDS011;11469;49.024;8.246;2024-01-06T10:00:02;17.35;;;9.07;;
22603;SDS011;11469;49.024;8.246;2024-01-06T10:02:29;17.42;;;8.85;;
22603;SDS011;11469;49.024;8.246;2024-01-06T10:04:57;18.17;;;8.45;;
22603;SDS011;11469;49.024;8.246;2024-01-06T10:07:25;18.77;;;9.38;;
22603;SDS011;11469;49.024;8.246;2024-01-06T10:09:51;16.15;;;8.95;;
22603;SDS011;11469;49.024;8.246;2024-01-06T10:12:22;17.83;;;9.05;;
22603;SDS011;11469;49.024;8.246;2024-01-06T10:14:50;16.00;;;8.95;;
22603;SDS011;11469;49.024;8.246;2024-01-06T10:17:16;22.92;;;9.63;;
22603;SDS011;11469;49.024;8.246;2024-01-06T10:19:46;19.40;;;9.63;;
22603;SDS011;11469;49.024;8.246;2024-01-06T10:22:13;16.50;;;9.32;;
22603;SDS011;11469;49.024;8.246;2024-01-06T10:24:39;14.48;;;8.60;;
22603;SDS011;11469;49.024;8.246;2024-01-06T10:27:05;14.70;;;8.10;;
22603;SDS011;11469;49.024;8.246;2024-01-06T10:29:31;14.20;;;8.57;;
22603;SDS011;11469;49.024;8.246;2024-01-06T10:31:58;17.30;;;8.75;;
22603;SDS011;11469;49.024;8.246;2024-01-06T10:34:24;21.35;;;8.82;;
22603;SDS011;11469;49.024;8.246;2024-01-06T10:36:51;13.45;;;8.15;;
22603;SDS011;11469;49.024;8.246;2024-01-06T10:39:20;16.27;;;8.07;;
22603;SDS011;11469;49.024;8.246;2024-01-06T10:41:48;20.73;;;9.23;;
22603;SDS011;11469;49.024;8.246;2024-01-06T10:44:15;15.38;;;8.77;;
22603;SDS011;11469;49.024;8.246;2024-01-06T10:46:41;18.55;;;9.57;;
22603;SDS011;11469;49.024;8.246;2024-01-06T10:49:11;19.42;;;8.82;;
22603;SDS011;11469;49.024;8.246;2024-01-06T10:51:37;13.30;;;8.65;;
22603;SDS011;11469;49.024;8.246;2024-01-06T10:54:03;20.13;;;9.25;;
22603;SDS011;11469;49.024;8.246;2024-01-06T10:56:29;18.70;;;9.57;;
22603;SDS011;11469;49.024;8.246;2024-01-06T10:58:56;18.73;;;10.02;;
22603;SDS011;11469;49.024;8.246;2024-01-06T11:01:22;17.45;;;10.13;;
22603;SDS011;11469;49.024;8.246;2024-01-06T11:03:52;20.45;;;9.60;;
22603;SDS011;11469;49.024;8.246;2024-01-06T11:06:22;16.40;;;9.38;;
22603;SDS011;11469;49.024;8.246;2024-01-06T11:08:53;13.05;;;9.02;;
22603;SDS011;11469;49.024;8.246;2024-01-06T11:11:24;15.52;;;10.00;;
22603;SDS011;11469;49.024;8.246;2024-01-06T11:13:50;16.42;;;9.02;;
22603;SDS011;11469;49.024;8.246;2024-01-06T11:16:35;17.67;;;9.95;;
22603;SDS011;11469;49.024;8.246;2024-01-06T11:19:01;18.88;;;10.25;;
22603;SDS011;11469;49.024;8.246;2024-01-06T11:21:27;16.33;;;9.55;;
22603;SDS011;11469;49.024;8.246;2024-01-06T11:24:14;17.58;;;9.48;;
22603;SDS011;11469;49.024;8.246;2024-01-06T11:26:45;13.43;;;9.07;;
22603;SDS011;11469;49.024;8.246;2024-01-06T11:29:15;18.75;;;9.65;;
22603;SDS011;11469;49.024;8.246;2024-01-06T11:31:40;17.63;;;9.23;;
22603;SDS011;11469;49.024;8.246;2024-01-06T11:34:12;18.48;;;8.88;;
22603;SDS011;11469;49.024;8.246;2024-01-06T11:36:38;16.25;;;8.65;;
22603;SDS011;11469;49.024;8.246;2024-01-06T11:39:05;14.88;;;9.00;;
22603;SDS011;11469;49.024;8.246;2024-01-06T11:41:49;13.40;;;9.10;;
22603;SDS011;11469;49.024;8.246;2024-01-06T11:44:22;13.52;;;8.50;;
22603;SDS011;11469;49.024;8.246;2024-01-06T11:46:48;16.10;;;10.60;;
22603;SDS011;11469;49.024;8.246;2024-01-06T11:49:17;14.98;;;8.82;;
22603;SDS011;11469;49.024;8.246;2024-01-06T11:51:45;15.60;;;8.95;;
22603;SDS011;11469;49.024;8.246;2024-01-06T11:54:11;15.55;;;8.57;;
22603;SDS011;11469;49.024;8.246;2024-01-06T11:56:37;13.35;;;8.02;;
22603;SDS011;11469;49.024;8.246;2024-01-06T11:59:03;18.92;;;9.13;;
22603;SDS011;11469;49.024;8.246;2024-01-06T12:01:35;14.68;;;8.77;;
22603;SDS011;11469;49.024;8.246;2024-01-06T12:04:04;17.85;;;8.38;;
22603;SDS011;11469;49.024;8.246;2024-01-06T12:06:30;15.65;;;9.20;;
22603;SDS011;11469;49.024;8.246;2024-01-06T12:09:06;15.65;;;8.25;;
22603;SDS011;11469;49.024;8.246;2024-01-06T12:11:32;13.23;;;9.23;;
22603;SDS011;11469;49.024;8.246;2024-01-06T12:13:58;23.50;;;9.15;;
22603;SDS011;11469;49.024;8.246;2024-01-06T12:16:23;13.10;;;8.82;;
22603;SDS011;11469;49.024;8.246;2024-01-06T12:18:55;19.35;;;9.85;;
22603;SDS011;11469;49.024;8.246;2024-01-06T12:21:24;16.63;;;8.52;;
22603;SDS011;11469;49.024;8.246;2024-01-06T12:23:50;13.82;;;9.05;;
22603;SDS011;11469;49.024;8.246;2024-01-06T12:26:18;15.48;;;8.57;;
22603;SDS011;11469;49.024;8.246;2024-01-06T12:28:45;14.90;;;8.90;;
22603;SDS011;11469;49.024;8.246;2024-01-06T12:31:10;14.50;;;8.52;;
22603;SDS011;11469;49.024;8.246;2024-01-06T12:33:38;15.40;;;9.57;;
22603;SDS011;11469;49.024;8.246;2024-01-06T12:36:06;16.60;;;8.77;;
22603;SDS011;11469;49.024;8.246;2024-01-06T12:38:32;16.55;;;8.55;;
22603;SDS011;11469;49.024;8.246;2024-01-06T12:40:57;14.63;;;8.93;;
22603;SDS011;11469;49.024;8.246;2024-01-06T12:43:23;13.82;;;8.00;;
22603;SDS011;11469;49.024;8.246;2024-01-06T12:45:48;15.88;;;8.93;;
22603;SDS011;11469;49.024;8.246;2024-01-06T12:48:17;18.52;;;9.35;;
22603;SDS011;11469;49.024;8.246;2024-01-06T12:50:43;16.17;;;9.65;;
22603;SDS011;11469;49.024;8.246;2024-01-06T12:53:08;14.63;;;9.23;;
22603;SDS011;11469;49.024;8.246;2024-01-06T12:55:34;13.93;;;9.55;;
22603;SDS011;11469;49.024;8.246;2024-01-06T12:57:59;14.30;;;8.70;;
22603;SDS011;11469;49.024;8.246;2024-01-06T13:00:28;24.95;;;15.30;;
22603;SDS011;11469;49.024;8.246;2024-01-06T13:02:54;19.30;;;12.18;;
22603;SDS011;11469;49.024;8.246;2024-01-06T13:05:19;15.27;;;8.70;;
22603;SDS011;11469;49.024;8.246;2024-01-06T13:07:45;15.43;;;8.88;;
22603;SDS011;11469;49.024;8.246;2024-01-06T13:10:10;14.60;;;9.65;;
22603;SDS011;11469;49.024;8.246;2024-01-06T13:12:36;14.05;;;9.52;;
22603;SDS011;11469;49.024;8.246;2024-01-06T13:15:01;14.80;;;9.15;;
22603;SDS011;11469;49.024;8.246;2024-01-06T13:17:27;15.68;;;9.00;;
22603;SDS011;11469;49.024;8.246;2024-01-06T13:19:52;18.15;;;9.73;;
22603;SDS011;11469;49.024;8.246;2024-01-06T13:22:17;15.23;;;9.48;;
22603;SDS011;11469;49.024;8.246;2024-01-06T13:24:45;14.65;;;9.45;;
22603;SDS011;11469;49.024;8.246;2024-01-06T13:27:11;16.20;;;9.48;;
22603;SDS011;11469;49.024;8.246;2024-01-06T13:29:36;18.33;;;9.60;;
22603;SDS011;11469;49.024;8.246;2024-01-06T13:32:02;14.65;;;9.00;;
22603;SDS011;11469;49.024;8.246;2024-01-06T13:34:27;15.70;;;9.05;;
22603;SDS011;11469;49.024;8.246;2024-01-06T13:36:54;20.30;;;10.35;;
22603;SDS011;11469;49.024;8.246;2024-01-06T13:39:20;13.73;;;9.18;;
22603;SDS011;11469;49.024;8.246;2024-01-06T13:41:46;14.63;;;9.18;;
22603;SDS011;11469;49.024;8.246;2024-01-06T13:44:12;17.67;;;10.15;;
22603;SDS011;11469;49.024;8.246;2024-01-06T13:46:38;20.05;;;10.98;;
22603;SDS011;11469;49.024;8.246;2024-01-06T13:49:06;13.57;;;9.65;;
22603;SDS011;11469;49.024;8.246;2024-01-06T13:51:31;19.35;;;11.73;;
22603;SDS011;11469;49.024;8.246;2024-01-06T13:53:57;15.20;;;10.27;;
22603;SDS011;11469;49.024;8.246;2024-01-06T13:56:23;18.17;;;10.35;;
22603;SDS011;11469;49.024;8.246;2024-01-06T13:58:48;18.15;;;9.60;;
22603;SDS011;11469;49.024;8.246;2024-01-06T14:01:14;19.40;;;11.20;;
22603;SDS011;11469;49.024;8.246;2024-01-06T14:03:39;15.23;;;9.73;;
22603;SDS011;11469;49.024;8.246;2024-01-06T14:06:05;14.75;;;9.65;;
22603;SDS011;11469;49.024;8.246;2024-01-06T14:08:32;15.77;;;9.15;;
22603;SDS011;11469;49.024;8.246;2024-01-06T14:10:57;18.92;;;11.02;;
22603;SDS011;11469;49.024;8.246;2024-01-06T14:13:22;20.52;;;13.52;;
22603;SDS011;11469;49.024;8.246;2024-01-06T14:15:48;19.30;;;11.75;;
22603;SDS011;11469;49.024;8.246;2024-01-06T14:18:13;15.30;;;10.65;;
22603;SDS011;11469;49.024;8.246;2024-01-06T14:20:41;20.15;;;11.25;;
22603;SDS011;11469;49.024;8.246;2024-01-06T14:23:06;20.40;;;9.90;;
22603;SDS011;11469;49.024;8.246;2024-01-06T14:25:32;16.35;;;10.35;;
22603;SDS011;11469;49.024;8.246;2024-01-06T14:27:57;21.83;;;10.88;;
22603;SDS011;11469;49.024;8.246;2024-01-06T14:30:22;15.32;;;9.98;;